createdAt,value
2017-06-02T00:00:12.000Z,7.36
2017-06-02T00:02:40.848Z,6.40
2017-06-02T00:05:09.712Z,5.96
2017-06-02T00:07:38.551Z,5.50
2017-06-02T00:10:06.623Z,5.04
2017-06-02T00:12:35.471Z,5.60
2017-06-02T00:15:04.308Z,5.16
2017-06-02T00:17:32.396Z,5.52
2017-06-02T00:20:01.236Z,6.72
2017-06-02T00:22:30.076Z,6.60
2017-06-02T00:24:58.923Z,6.80
2017-06-02T00:27:27.839Z,7.28
2017-06-02T00:29:56.679Z,7.62
2017-06-02T00:32:25.575Z,8.04
2017-06-02T00:34:54.439Z,8.12
2017-06-02T00:37:23.284Z,8.36
2017-06-02T00:39:52.139Z,8.76
2017-06-02T00:42:20.988Z,8.10
2017-06-02T00:44:49.835Z,9.48
2017-06-02T00:47:18.684Z,9.28
2017-06-02T00:49:47.555Z,9.42
2017-06-02T00:52:16.507Z,9.58
2017-06-02T00:54:45.690Z,8.94
2017-06-02T00:57:14.671Z,8.44
2017-06-02T00:59:43.507Z,7.82
2017-06-02T01:02:12.360Z,9.22
2017-06-02T01:04:41.212Z,8.08
2017-06-02T01:07:09.311Z,8.82
2017-06-02T01:09:38.169Z,8.54
2017-06-02T01:12:07.053Z,6.64
2017-06-02T01:14:35.912Z,7.82
2017-06-02T01:17:04.752Z,7.12
2017-06-02T01:19:33.636Z,7.88
2017-06-02T01:22:01.777Z,7.20
2017-06-02T01:24:30.622Z,7.30
2017-06-02T01:26:59.476Z,7.70
2017-06-02T01:29:28.388Z,8.94
2017-06-02T01:31:57.230Z,8.72
2017-06-02T01:34:26.071Z,9.62
2017-06-02T01:36:54.158Z,9.86
2017-06-02T01:39:23.012Z,9.22
2017-06-02T01:41:51.859Z,9.70
2017-06-02T01:44:20.705Z,9.32
2017-06-02T01:46:48.812Z,8.84
2017-06-02T01:49:17.656Z,8.78
2017-06-02T01:51:46.504Z,7.20
2017-06-02T01:54:15.384Z,6.98
2017-06-02T01:56:44.255Z,7.78
2017-06-02T01:59:13.100Z,6.88
2017-06-02T02:01:41.935Z,6.68
2017-06-02T02:04:10.779Z,6.46
2017-06-02T02:06:39.627Z,6.82
2017-06-02T02:09:08.476Z,6.84
2017-06-02T02:11:37.320Z,7.38
2017-06-02T02:14:06.184Z,5.40
2017-06-02T02:16:34.259Z,5.96
2017-06-02T02:19:03.108Z,5.40
2017-06-02T02:21:31.951Z,6.54
2017-06-02T02:24:00.787Z,6.98
2017-06-02T02:26:29.631Z,6.52
2017-06-02T02:28:57.780Z,7.18
2017-06-02T02:31:26.623Z,6.14
2017-06-02T02:33:55.471Z,5.76
2017-06-02T02:36:24.349Z,5.88
2017-06-02T02:38:53.256Z,5.58
2017-06-02T02:41:22.100Z,6.20
2017-06-02T02:43:50.971Z,5.64
2017-06-02T02:46:19.815Z,5.74
2017-06-02T02:48:48.673Z,5.60
2017-06-02T02:51:17.524Z,5.84
2017-06-02T02:53:45.605Z,5.96
2017-06-02T02:56:14.460Z,5.76
2017-06-02T02:58:43.316Z,5.62
2017-06-02T03:01:12.151Z,6.00
2017-06-02T03:03:41.024Z,6.44
2017-06-02T03:06:09.939Z,7.46
2017-06-02T03:08:38.011Z,7.52
2017-06-02T03:11:06.865Z,7.26
2017-06-02T03:13:35.711Z,7.38
2017-06-02T03:16:04.572Z,7.50
2017-06-02T03:18:32.664Z,7.30
2017-06-02T03:21:01.523Z,7.76
2017-06-02T03:23:30.365Z,8.12
2017-06-02T03:25:59.251Z,8.76
2017-06-02T03:28:27.324Z,9.78
2017-06-02T03:30:56.163Z,7.14
2017-06-02T03:33:25.016Z,7.16
2017-06-02T03:35:53.860Z,7.28
2017-06-02T03:38:21.947Z,6.52
2017-06-02T03:40:50.788Z,7.20
2017-06-02T03:43:19.636Z,6.84
2017-06-02T03:45:48.484Z,6.54
2017-06-02T03:48:17.336Z,5.92
2017-06-02T03:50:46.184Z,6.68
2017-06-02T03:53:15.033Z,6.34
2017-06-02T03:55:43.876Z,6.48
2017-06-02T03:58:12.716Z,6.80
2017-06-02T04:00:41.564Z,6.20
2017-06-02T04:03:10.412Z,6.22
2017-06-02T04:05:39.252Z,6.86
2017-06-02T04:08:08.099Z,7.38
2017-06-02T04:10:36.990Z,7.30
2017-06-02T04:13:05.835Z,6.34
2017-06-02T04:15:34.691Z,7.86
2017-06-02T04:18:03.545Z,8.38
2017-06-02T04:20:32.383Z,8.08
2017-06-02T04:23:00.475Z,8.64
2017-06-02T04:25:29.335Z,11.62
2017-06-02T04:27:58.184Z,9.98
2017-06-02T04:30:27.027Z,10.74
2017-06-02T04:32:55.930Z,8.00
2017-06-02T04:35:24.753Z,6.68
2017-06-02T04:37:53.601Z,6.14
2017-06-02T04:40:22.466Z,6.10
2017-06-02T04:42:51.313Z,6.60
2017-06-02T04:45:20.424Z,6.26
2017-06-02T04:47:49.268Z,6.92
2017-06-02T04:50:17.355Z,6.48
2017-06-02T04:52:46.209Z,7.30
2017-06-02T04:55:15.077Z,8.16
2017-06-02T04:57:43.936Z,7.44
2017-06-02T05:00:12.028Z,7.74
2017-06-02T05:02:40.876Z,8.12
2017-06-02T05:05:09.715Z,7.52
2017-06-02T05:07:38.567Z,7.48
2017-06-02T05:10:07.438Z,6.90
2017-06-02T05:12:36.340Z,6.64
2017-06-02T05:15:05.175Z,6.54
2017-06-02T05:17:34.015Z,6.42
2017-06-02T05:20:02.873Z,7.14
2017-06-02T05:22:31.840Z,7.12
2017-06-02T05:25:00.696Z,7.18
2017-06-02T05:27:29.547Z,7.44
2017-06-02T05:29:58.395Z,7.78
2017-06-02T05:32:27.243Z,7.58
2017-06-02T05:34:56.127Z,7.38
2017-06-02T05:37:24.977Z,6.88
2017-06-02T05:39:53.831Z,7.08
2017-06-02T05:42:22.684Z,7.36
2017-06-02T05:44:51.559Z,8.06
2017-06-02T05:47:20.416Z,8.04
2017-06-02T05:49:49.260Z,6.46
2017-06-02T05:52:18.159Z,8.02
2017-06-02T05:54:47.004Z,7.00
2017-06-02T05:57:15.851Z,7.70
2017-06-02T05:59:44.703Z,7.16
2017-06-02T06:02:13.576Z,7.08
2017-06-02T06:04:52.475Z,7.54
2017-06-02T06:09:56.515Z,7.72
2017-06-02T06:12:25.356Z,7.52
2017-06-02T06:14:54.352Z,9.42
2017-06-02T06:17:23.191Z,8.84
2017-06-02T06:19:51.279Z,7.46
2017-06-02T06:22:20.123Z,7.02
2017-06-02T06:24:48.968Z,7.18
2017-06-02T06:27:17.840Z,6.42
2017-06-02T06:29:46.687Z,7.98
2017-06-02T06:32:15.544Z,6.74
2017-06-02T06:34:44.389Z,6.30
2017-06-02T06:37:13.337Z,6.52
2017-06-02T06:39:42.131Z,6.40
2017-06-02T06:42:10.988Z,7.54
2017-06-02T06:44:39.843Z,6.84
2017-06-02T06:47:08.687Z,6.64
2017-06-02T06:49:37.544Z,6.46
2017-06-02T06:52:05.628Z,7.02
2017-06-02T06:54:34.473Z,6.80
2017-06-02T06:57:03.323Z,6.82
2017-06-02T06:59:32.203Z,6.62
2017-06-02T07:02:01.052Z,6.16
2017-06-02T07:04:30.749Z,6.60
2017-06-02T07:06:59.902Z,6.50
2017-06-02T07:09:28.002Z,5.76
2017-06-02T07:11:56.930Z,5.56
2017-06-02T07:14:25.770Z,6.38
2017-06-02T07:16:54.615Z,4.22
2017-06-02T07:19:23.459Z,4.10
2017-06-02T07:21:52.345Z,3.64
2017-06-02T07:24:21.185Z,4.06
2017-06-02T07:26:50.024Z,3.82
2017-06-02T07:29:18.888Z,3.78
2017-06-02T07:31:46.958Z,3.60
2017-06-02T07:34:15.812Z,3.36
2017-06-02T07:36:44.656Z,3.28
2017-06-02T07:39:13.504Z,2.92
2017-06-02T07:41:42.347Z,2.66
2017-06-02T07:44:11.212Z,3.18
2017-06-02T07:46:39.284Z,3.04
2017-06-02T07:49:08.119Z,3.44
2017-06-02T07:51:36.964Z,3.92
2017-06-02T07:54:05.798Z,3.72
2017-06-02T07:56:34.645Z,3.88
2017-06-02T07:59:02.715Z,2.94
2017-06-02T08:01:31.563Z,3.52
2017-06-02T08:04:00.405Z,3.22
2017-06-02T08:06:29.247Z,4.78
2017-06-02T08:08:58.129Z,3.86
2017-06-02T08:11:26.984Z,3.46
2017-06-02T08:13:55.070Z,3.68
2017-06-02T08:16:23.967Z,3.94
2017-06-02T08:18:52.859Z,3.22
2017-06-02T08:21:21.756Z,3.66
2017-06-02T08:23:50.612Z,3.92
2017-06-02T08:26:19.456Z,3.78
2017-06-02T08:28:48.316Z,3.82
2017-06-02T08:31:16.392Z,3.12
2017-06-02T08:33:45.244Z,3.16
2017-06-02T08:36:14.092Z,3.80
2017-06-02T08:38:42.932Z,3.52
2017-06-02T08:41:11.784Z,3.06
2017-06-02T08:43:40.631Z,3.12
2017-06-02T08:46:09.488Z,2.88
2017-06-02T08:48:38.332Z,2.64
2017-06-02T08:51:07.219Z,2.96
2017-06-02T08:53:36.068Z,2.70
2017-06-02T08:56:04.908Z,2.68
2017-06-02T08:58:34.825Z,3.38
2017-06-02T09:01:03.696Z,3.36
2017-06-02T09:03:32.542Z,2.68
2017-06-02T09:06:01.379Z,2.44
2017-06-02T09:08:30.224Z,2.48
2017-06-02T09:10:59.067Z,2.10
2017-06-02T09:13:27.912Z,2.00
2017-06-02T09:15:56.768Z,1.84
2017-06-02T09:18:25.609Z,2.10
2017-06-02T09:20:53.695Z,1.86
2017-06-02T09:23:22.542Z,2.20
2017-06-02T09:25:51.376Z,2.16
2017-06-02T09:28:20.225Z,1.98
2017-06-02T09:30:49.067Z,1.86
2017-06-02T09:33:17.916Z,2.04
2017-06-02T09:35:46.769Z,2.56
2017-06-02T09:38:15.612Z,2.90
2017-06-02T09:40:44.532Z,2.80
2017-06-02T09:43:13.403Z,2.80
2017-06-02T09:45:42.238Z,3.00
2017-06-02T09:48:11.091Z,3.22
2017-06-02T09:50:39.940Z,3.46
2017-06-02T09:53:08.783Z,3.12
2017-06-02T09:55:37.624Z,3.24
2017-06-02T09:58:06.500Z,4.00
2017-06-02T10:00:35.332Z,3.16
2017-06-02T10:03:04.217Z,4.24
2017-06-02T10:05:33.151Z,3.90
2017-06-02T10:08:01.993Z,3.40
2017-06-02T10:10:30.834Z,4.18
2017-06-02T10:12:59.676Z,3.40
2017-06-02T10:15:28.556Z,3.28
2017-06-02T10:17:57.396Z,4.42
2017-06-02T10:20:26.272Z,4.16
2017-06-02T10:22:54.347Z,3.76
2017-06-02T10:25:23.191Z,3.48
2017-06-02T10:27:52.035Z,3.34
2017-06-02T10:30:20.875Z,4.16
2017-06-02T10:32:49.725Z,5.00
2017-06-02T10:35:18.556Z,3.98
2017-06-02T10:37:47.404Z,4.58
2017-06-02T10:40:16.245Z,3.58
2017-06-02T10:42:45.103Z,3.86
2017-06-02T10:45:13.953Z,3.30
2017-06-02T10:47:42.822Z,4.38
2017-06-02T10:50:11.700Z,5.58
2017-06-02T10:52:40.540Z,4.62
2017-06-02T10:55:09.403Z,4.30
2017-06-02T10:57:38.244Z,4.10
2017-06-02T11:00:07.092Z,3.94
2017-06-02T11:02:35.187Z,3.86
2017-06-02T11:05:04.064Z,3.80
2017-06-02T11:07:32.148Z,3.66
2017-06-02T11:10:00.995Z,4.22
2017-06-02T11:12:29.855Z,4.72
2017-06-02T11:14:58.700Z,5.04
2017-06-02T11:17:26.815Z,4.94
2017-06-02T11:19:55.651Z,4.80
2017-06-02T11:22:23.751Z,5.10
2017-06-02T11:24:52.603Z,3.82
2017-06-02T11:27:21.439Z,3.70
2017-06-02T11:29:50.292Z,3.74
2017-06-02T11:32:19.124Z,3.24
2017-06-02T11:34:47.976Z,3.80
2017-06-02T11:37:16.055Z,4.26
2017-06-02T11:39:44.904Z,4.32
2017-06-02T11:42:13.751Z,6.06
2017-06-02T11:44:42.619Z,4.10
2017-06-02T11:47:11.455Z,5.48
2017-06-02T11:49:40.309Z,3.84
2017-06-02T11:52:08.395Z,3.92
2017-06-02T11:54:37.238Z,3.98
2017-06-02T11:57:06.083Z,3.54
2017-06-02T11:59:34.928Z,3.72
2017-06-02T12:02:03.780Z,3.20
2017-06-02T12:04:32.730Z,5.48
2017-06-02T12:07:01.580Z,6.10
2017-06-02T12:09:30.444Z,4.78
2017-06-02T12:11:59.292Z,6.08
2017-06-02T12:14:28.140Z,4.70
2017-06-02T12:16:56.987Z,3.40
2017-06-02T12:19:25.080Z,3.40
2017-06-02T12:21:53.930Z,5.22
2017-06-02T12:24:22.775Z,3.58
2017-06-02T12:26:51.615Z,3.46
2017-06-02T12:29:20.483Z,2.86
2017-06-02T12:31:49.327Z,4.56
2017-06-02T12:34:18.195Z,3.74
2017-06-02T12:36:46.278Z,4.12
2017-06-02T12:39:15.144Z,4.02
2017-06-02T12:41:43.988Z,4.74
2017-06-02T12:44:12.823Z,3.80
2017-06-02T12:46:41.670Z,3.98
2017-06-02T12:49:10.515Z,4.44
2017-06-02T12:51:39.380Z,7.62
2017-06-02T12:54:08.215Z,4.40
2017-06-02T12:56:37.051Z,3.94
2017-06-02T12:59:05.915Z,4.46
2017-06-02T13:01:34.762Z,4.60
2017-06-02T13:04:03.613Z,4.58
2017-06-02T13:06:32.541Z,4.02
2017-06-02T13:09:01.383Z,4.02
2017-06-02T13:11:30.222Z,3.92
2017-06-02T13:13:59.091Z,3.92
2017-06-02T13:16:28.035Z,3.78
2017-06-02T13:18:56.871Z,4.02
2017-06-02T13:21:25.763Z,4.32
2017-06-02T13:23:54.600Z,3.52
2017-06-02T13:26:23.459Z,3.98
2017-06-02T13:28:52.299Z,3.40
2017-06-02T13:31:21.158Z,4.10
2017-06-02T13:33:50.003Z,5.64
2017-06-02T13:36:18.888Z,5.40
2017-06-02T13:38:47.776Z,4.70
2017-06-02T13:41:16.611Z,3.92
2017-06-02T13:43:45.485Z,4.02
2017-06-02T13:46:14.319Z,5.10
2017-06-02T13:48:43.167Z,4.28
2017-06-02T13:51:12.995Z,4.82
2017-06-02T13:53:41.872Z,4.68
2017-06-02T13:56:10.728Z,5.52
2017-06-02T13:58:39.571Z,3.74
2017-06-02T14:01:08.423Z,4.22
2017-06-02T14:03:37.269Z,5.04
2017-06-02T14:06:06.124Z,4.40
2017-06-02T14:08:34.981Z,5.44
2017-06-02T14:11:03.820Z,5.38
2017-06-02T14:13:32.659Z,5.52
2017-06-02T14:16:01.515Z,4.54
2017-06-02T14:18:30.372Z,4.44
2017-06-02T14:20:59.211Z,3.96
2017-06-02T14:23:28.081Z,3.94
2017-06-02T14:25:56.915Z,4.16
2017-06-02T14:28:25.763Z,4.02
2017-06-02T14:30:54.860Z,4.04
2017-06-02T14:33:23.708Z,4.30
2017-06-02T14:35:52.558Z,4.52
2017-06-02T14:38:20.644Z,4.74
2017-06-02T14:40:49.479Z,4.74
2017-06-02T14:43:18.363Z,4.26
2017-06-02T14:45:47.203Z,4.72
2017-06-02T14:48:16.035Z,5.54
2017-06-02T14:50:44.883Z,4.30
2017-06-02T14:53:13.072Z,4.00
2017-06-02T14:55:41.923Z,4.12
2017-06-02T14:58:10.786Z,4.64
2017-06-02T15:00:39.632Z,5.10
2017-06-02T15:03:08.468Z,4.08
2017-06-02T15:05:38.099Z,4.02
2017-06-02T15:08:06.939Z,3.98
2017-06-02T15:10:35.785Z,4.18
2017-06-02T15:13:04.639Z,3.48
2017-06-02T15:15:33.492Z,4.50
2017-06-02T15:18:02.352Z,5.10
2017-06-02T15:20:31.192Z,4.10
2017-06-02T15:23:00.099Z,3.72
2017-06-02T15:25:29.096Z,3.80
2017-06-02T15:27:57.994Z,3.82
2017-06-02T15:30:26.912Z,3.90
2017-06-02T15:32:55.748Z,3.70
2017-06-02T15:35:24.612Z,4.70
2017-06-02T15:37:52.691Z,6.30
2017-06-02T15:40:21.544Z,4.08
2017-06-02T15:42:50.379Z,3.64
2017-06-02T15:45:19.222Z,3.80
2017-06-02T15:47:48.067Z,4.02
2017-06-02T15:50:16.951Z,3.68
2017-06-02T15:52:45.793Z,4.18
2017-06-02T15:55:14.632Z,4.20
2017-06-02T15:57:42.717Z,3.90
2017-06-02T16:00:11.623Z,3.98
2017-06-02T16:02:40.479Z,4.94
2017-06-02T16:05:09.318Z,5.34
2017-06-02T16:07:38.184Z,5.00
2017-06-02T16:10:35.691Z,4.54
2017-06-02T16:13:04.594Z,4.60
2017-06-02T16:15:33.436Z,5.24
2017-06-02T16:18:02.279Z,3.80
2017-06-02T16:20:31.119Z,4.82
2017-06-02T16:22:59.973Z,4.40
2017-06-02T16:25:28.810Z,3.68
2017-06-02T16:27:57.661Z,4.64
2017-06-02T16:30:26.495Z,4.20
2017-06-02T16:32:55.367Z,4.60
2017-06-02T16:35:24.211Z,4.32
2017-06-02T16:37:53.052Z,5.42
2017-06-02T16:40:21.939Z,5.66
2017-06-02T16:42:50.805Z,4.36
2017-06-02T16:45:19.651Z,4.22
2017-06-02T16:47:48.559Z,4.26
2017-06-02T16:50:17.402Z,4.38
2017-06-02T16:52:46.248Z,3.64
2017-06-02T16:55:15.088Z,3.72
2017-06-02T16:57:43.171Z,4.80
2017-06-02T17:00:11.247Z,4.26
2017-06-02T17:02:39.610Z,3.80
2017-06-02T17:05:08.460Z,4.20
2017-06-02T17:07:37.303Z,4.72
2017-06-02T17:10:06.152Z,4.60
2017-06-02T17:13:11.392Z,4.93
2017-06-02T17:15:39.459Z,4.17
2017-06-02T17:18:07.530Z,3.93
2017-06-02T17:20:35.608Z,4.90
2017-06-02T17:23:03.695Z,4.60
2017-06-02T17:25:31.784Z,4.50
2017-06-02T17:27:59.851Z,4.17
2017-06-02T17:30:27.926Z,3.90
2017-06-02T17:32:56.763Z,6.37
2017-06-02T17:35:24.835Z,4.10
2017-06-02T17:37:52.907Z,4.10
2017-06-02T17:40:20.988Z,3.77
2017-06-02T17:42:49.058Z,4.10
2017-06-02T17:45:17.124Z,5.20
2017-06-02T17:47:45.211Z,6.13
2017-06-02T17:50:13.295Z,7.03
2017-06-02T17:52:41.369Z,4.60
2017-06-02T17:55:09.430Z,6.10
2017-06-02T17:57:37.527Z,5.00
2017-06-02T18:00:05.602Z,4.27
2017-06-02T18:02:33.719Z,4.50
2017-06-02T18:05:01.862Z,4.10
2017-06-02T18:07:30.730Z,4.50
2017-06-02T18:09:58.844Z,4.33
2017-06-02T18:12:26.907Z,4.30
2017-06-02T18:14:55.004Z,4.60
2017-06-02T18:17:23.067Z,4.10
2017-06-02T18:19:51.215Z,4.07
2017-06-02T18:22:19.287Z,5.83
2017-06-02T18:24:47.358Z,4.53
2017-06-02T18:27:15.432Z,4.37
2017-06-02T18:29:43.495Z,4.40
2017-06-02T18:32:11.576Z,5.00
2017-06-02T18:34:40.420Z,4.30
2017-06-02T18:37:08.850Z,4.60
2017-06-02T18:39:36.919Z,4.20
2017-06-02T18:42:05.012Z,4.67
2017-06-02T18:44:33.080Z,4.03
2017-06-02T18:47:01.147Z,4.70
2017-06-02T18:49:29.279Z,4.43
2017-06-02T18:51:57.379Z,4.60
2017-06-02T18:54:25.451Z,4.57
2017-06-02T18:56:53.520Z,4.63
2017-06-02T18:59:21.591Z,4.20
2017-06-02T19:01:49.663Z,4.80
2017-06-02T19:04:17.773Z,130.20
2017-06-02T19:06:45.888Z,167.87
2017-06-02T19:09:13.972Z,105.70
2017-06-02T19:11:42.059Z,138.10
2017-06-02T19:14:10.126Z,40.47
2017-06-02T19:16:38.207Z,18.70
2017-06-02T19:19:07.051Z,45.47
2017-06-02T19:21:35.131Z,59.63
2017-06-02T19:24:03.446Z,102.43
2017-06-02T19:26:31.553Z,56.63
2017-06-02T19:28:59.627Z,136.93
2017-06-02T19:31:27.719Z,96.50
2017-06-02T19:33:55.820Z,88.97
2017-06-02T19:36:23.899Z,18.47
2017-06-02T19:38:51.976Z,13.10
2017-06-02T19:41:20.049Z,9.03
2017-06-02T19:43:48.128Z,11.47
2017-06-02T19:46:16.201Z,13.43
2017-06-02T19:48:44.281Z,11.60
2017-06-02T19:51:13.136Z,13.90
2017-06-02T19:53:41.215Z,10.63
2017-06-02T19:56:09.304Z,8.80
2017-06-02T19:58:37.367Z,8.40
2017-06-02T20:01:06.257Z,13.20
2017-06-02T20:03:34.326Z,12.53
2017-06-02T20:06:02.408Z,11.87
2017-06-02T20:08:30.487Z,10.57
2017-06-02T20:10:58.556Z,14.67
2017-06-02T20:13:26.651Z,8.00
2017-06-02T20:15:55.488Z,8.17
2017-06-02T20:18:23.569Z,9.83
2017-06-02T20:23:26.032Z,8.50
2017-06-02T20:25:54.117Z,11.13
2017-06-02T20:28:22.200Z,10.47
2017-06-02T20:30:50.287Z,9.97
2017-06-02T20:33:18.371Z,10.80
2017-06-02T20:35:46.470Z,10.50
2017-06-02T20:38:14.546Z,13.73
2017-06-02T20:40:42.624Z,10.03
2017-06-02T20:43:10.707Z,11.87
2017-06-02T20:45:38.776Z,13.37
2017-06-02T20:48:06.852Z,9.83
2017-06-02T20:50:34.936Z,11.90
2017-06-02T20:53:03.019Z,14.30
2017-06-02T20:55:31.084Z,12.10
2017-06-02T20:57:59.183Z,11.63
2017-06-02T21:00:27.252Z,12.93
2017-06-02T21:02:55.319Z,9.40
2017-06-02T21:05:23.397Z,8.23
2017-06-02T21:07:51.471Z,7.97
2017-06-02T21:10:19.543Z,7.00
2017-06-02T21:12:47.614Z,7.30
2017-06-02T21:15:15.688Z,6.60
2017-06-02T21:17:43.755Z,7.37
2017-06-02T21:20:11.847Z,7.47
2017-06-02T21:22:41.158Z,6.60
2017-06-02T21:25:19.318Z,7.27
2017-06-02T21:27:47.392Z,7.67
2017-06-02T21:30:15.459Z,7.03
2017-06-02T21:32:43.535Z,8.03
2017-06-02T21:35:11.644Z,7.50
2017-06-02T21:37:39.720Z,7.90
2017-06-02T21:40:07.819Z,7.17
2017-06-02T21:42:35.925Z,8.37
2017-06-02T21:45:04.000Z,10.07
2017-06-02T21:47:32.077Z,9.57
2017-06-02T21:50:00.164Z,7.57
2017-06-02T21:52:28.241Z,8.00
2017-06-02T21:54:56.330Z,8.10
2017-06-02T21:57:24.399Z,7.23
2017-06-02T21:59:52.472Z,8.67
2017-06-02T22:02:20.546Z,7.20
2017-06-02T22:04:48.637Z,7.77
2017-06-02T22:07:17.472Z,7.03
2017-06-02T22:09:45.534Z,8.03
2017-06-02T22:12:13.616Z,8.23
2017-06-02T22:14:41.684Z,8.47
2017-06-02T22:17:09.759Z,8.43
2017-06-02T22:19:37.830Z,7.60
2017-06-02T22:22:05.919Z,9.07
2017-06-02T22:24:34.102Z,9.20
2017-06-02T22:27:02.168Z,7.73
2017-06-02T22:29:30.240Z,9.57
2017-06-02T22:31:58.330Z,8.10
2017-06-02T22:34:26.403Z,7.57
2017-06-02T22:36:54.476Z,9.37
2017-06-02T22:39:22.584Z,7.90
2017-06-02T22:41:50.656Z,7.37
2017-06-02T22:44:18.724Z,7.27
2017-06-02T22:46:46.796Z,6.30
2017-06-02T22:49:15.784Z,7.57
2017-06-02T22:51:44.635Z,8.33
2017-06-02T22:54:12.707Z,7.20
2017-06-02T22:56:40.780Z,7.13
2017-06-02T22:59:08.876Z,7.60
2017-06-02T23:01:36.963Z,7.70
2017-06-02T23:04:05.803Z,8.33
2017-06-02T23:06:33.875Z,8.93
2017-06-02T23:09:01.960Z,8.93
2017-06-02T23:11:30.032Z,9.03
2017-06-02T23:13:58.113Z,9.63
2017-06-02T23:16:26.199Z,9.90
2017-06-02T23:18:54.388Z,10.17
2017-06-02T23:21:22.443Z,9.47
2017-06-02T23:23:50.547Z,9.80
2017-06-02T23:26:18.623Z,10.20
2017-06-02T23:28:46.696Z,10.17
2017-06-02T23:31:14.784Z,10.10
2017-06-02T23:33:42.862Z,10.33
2017-06-02T23:36:10.942Z,10.60
2017-06-02T23:38:39.125Z,10.70
2017-06-02T23:41:07.195Z,11.20
2017-06-02T23:43:35.272Z,11.53
2017-06-02T23:46:03.379Z,11.80
2017-06-02T23:48:31.456Z,11.30
2017-06-02T23:50:59.523Z,11.27
2017-06-02T23:53:27.607Z,11.10
2017-06-02T23:55:55.687Z,10.77
2017-06-02T23:58:24.531Z,10.20
